BEL5VR EBBR-EDDP
Flight info
| Callsign | BEL5VR |
|---|---|
| Flight time | 0h 55m |
| Altitude | 37000 |
| Route | SPI Y862 KENUM N853 ONUNE DCT TOLGI DCT NORTA/N0408F230 DCT ADMOS T959 KOJEC KOJEC1R |
| Aircraft | A320/M-SDE3FGHIRWY/LB1 |
Departure
| Time | 2026-05-07 18:31 |
|---|---|
| Airport | Brussels Airport (EBBR) |
Arrival
| Time | 2026-05-07 19:27 |
|---|---|
| Airport | Leipzig/Halle Airport (EDDP) |
| Time | Latitude | Longitude | Altitude | Speed | Heading |
|---|---|---|---|---|---|
| 2026-05-07 17:55 | 50.90295 | 4.48635 | 143 ft | 0 kts | 337° |
| 2026-05-07 18:18 | 50.90277 | 4.48648 | 144 ft | 4 kts | 337° |
| 2026-05-07 18:18 | 50.90252 | 4.48664 | 144 ft | 4 kts | 335° |
| 2026-05-07 18:18 | 50.90228 | 4.48681 | 144 ft | 4 kts | 355° |
| 2026-05-07 18:18 | 50.90218 | 4.48678 | 144 ft | 2 kts | 65° |
| 2026-05-07 18:19 | 50.90210 | 4.48650 | 144 ft | 0 kts | 65° |
| 2026-05-07 18:23 | 50.90222 | 4.48691 | 144 ft | 7 kts | 65° |
| 2026-05-07 18:23 | 50.90256 | 4.48810 | 144 ft | 17 kts | 65° |
| 2026-05-07 18:23 | 50.90309 | 4.48997 | 144 ft | 20 kts | 65° |
| 2026-05-07 18:24 | 50.90368 | 4.49201 | 144 ft | 21 kts | 65° |
| 2026-05-07 18:24 | 50.90429 | 4.49409 | 143 ft | 21 kts | 65° |
| 2026-05-07 18:24 | 50.90493 | 4.49600 | 143 ft | 16 kts | 35° |
| 2026-05-07 18:24 | 50.90602 | 4.49652 | 143 ft | 17 kts | 14° |
| 2026-05-07 18:25 | 50.90700 | 4.49691 | 143 ft | 12 kts | 14° |
| 2026-05-07 18:25 | 50.90745 | 4.49709 | 142 ft | 0 kts | 14° |
| 2026-05-07 18:26 | 50.90748 | 4.49710 | 142 ft | 4 kts | 14° |
| 2026-05-07 18:26 | 50.90796 | 4.49730 | 142 ft | 7 kts | 14° |
| 2026-05-07 18:26 | 50.90853 | 4.49753 | 142 ft | 13 kts | 14° |
| 2026-05-07 18:26 | 50.90930 | 4.49798 | 140 ft | 12 kts | 28° |
| 2026-05-07 18:27 | 50.90992 | 4.49871 | 138 ft | 12 kts | 36° |
| 2026-05-07 18:27 | 50.91041 | 4.49911 | 134 ft | 0 kts | 21° |
| 2026-05-07 18:29 | 50.91049 | 4.49916 | 133 ft | 4 kts | 21° |
| 2026-05-07 18:29 | 50.91106 | 4.49944 | 124 ft | 12 kts | 0° |
| 2026-05-07 18:30 | 50.91128 | 4.49840 | 121 ft | 8 kts | 245° |
| 2026-05-07 18:30 | 50.91126 | 4.49834 | 121 ft | 0 kts | 245° |
| 2026-05-07 18:30 | 50.91126 | 4.49833 | 121 ft | 1 kts | 245° |
| 2026-05-07 18:31 | 50.91045 | 4.49553 | 123 ft | 67 kts | 245° |
| 2026-05-07 18:31 | 50.90753 | 4.48546 | 126 ft | 131 kts | 245° |
| 2026-05-07 18:31 | 50.90310 | 4.47000 | 269 ft | 167 kts | 246° |
| 2026-05-07 18:31 | 50.89851 | 4.45302 | 1000 ft | 167 kts | 247° |
| 2026-05-07 18:32 | 50.89400 | 4.43611 | 1765 ft | 166 kts | 246° |
| 2026-05-07 18:32 | 50.88800 | 4.41965 | 2250 ft | 182 kts | 231° |
| 2026-05-07 18:32 | 50.87849 | 4.40512 | 2579 ft | 204 kts | 214° |
| 2026-05-07 18:32 | 50.86495 | 4.39456 | 2919 ft | 229 kts | 195° |
| 2026-05-07 18:33 | 50.84847 | 4.39159 | 3385 ft | 252 kts | 174° |
| 2026-05-07 18:33 | 50.83132 | 4.39890 | 4157 ft | 260 kts | 152° |
| 2026-05-07 18:33 | 50.81691 | 4.41575 | 5085 ft | 264 kts | 131° |
| 2026-05-07 18:33 | 50.80729 | 4.44064 | 6025 ft | 268 kts | 109° |
| 2026-05-07 18:34 | 50.80437 | 4.46995 | 6767 ft | 276 kts | 87° |
| 2026-05-07 18:34 | 50.80704 | 4.50017 | 7007 ft | 277 kts | 82° |
| 2026-05-07 18:34 | 50.80911 | 4.53067 | 7407 ft | 281 kts | 87° |
| 2026-05-07 18:34 | 50.80947 | 4.56159 | 8379 ft | 282 kts | 92° |
| 2026-05-07 18:35 | 50.80803 | 4.59264 | 9257 ft | 287 kts | 98° |
| 2026-05-07 18:35 | 50.80464 | 4.62402 | 10098 ft | 292 kts | 103° |
| 2026-05-07 18:35 | 50.79934 | 4.65481 | 10869 ft | 295 kts | 109° |
| 2026-05-07 18:35 | 50.79202 | 4.68600 | 11362 ft | 313 kts | 114° |
| 2026-05-07 18:36 | 50.78308 | 4.71903 | 11601 ft | 337 kts | 111° |
| 2026-05-07 18:36 | 50.77549 | 4.75481 | 11902 ft | 356 kts | 108° |
| 2026-05-07 18:36 | 50.76710 | 4.79214 | 12528 ft | 363 kts | 112° |
| 2026-05-07 18:36 | 50.75750 | 4.82941 | 13252 ft | 367 kts | 114° |
| 2026-05-07 18:37 | 50.74712 | 4.86661 | 13970 ft | 371 kts | 116° |
| 2026-05-07 18:37 | 50.73629 | 4.90328 | 14609 ft | 375 kts | 116° |
| 2026-05-07 18:37 | 50.72731 | 4.94225 | 15218 ft | 382 kts | 102° |
| 2026-05-07 18:37 | 50.72492 | 4.98426 | 15849 ft | 386 kts | 93° |
| 2026-05-07 18:38 | 50.72371 | 5.02703 | 16496 ft | 390 kts | 93° |
| 2026-05-07 18:38 | 50.72261 | 5.06998 | 17124 ft | 394 kts | 92° |
| 2026-05-07 18:38 | 50.72154 | 5.11280 | 17740 ft | 398 kts | 92° |
| 2026-05-07 18:38 | 50.72042 | 5.15664 | 18355 ft | 402 kts | 92° |
| 2026-05-07 18:39 | 50.71926 | 5.20113 | 18916 ft | 405 kts | 92° |
| 2026-05-07 18:39 | 50.71801 | 5.24589 | 19472 ft | 409 kts | 93° |
| 2026-05-07 18:39 | 50.71670 | 5.29074 | 20026 ft | 412 kts | 93° |
| 2026-05-07 18:39 | 50.71532 | 5.33603 | 20566 ft | 416 kts | 93° |
| 2026-05-07 18:40 | 50.71393 | 5.38182 | 20975 ft | 419 kts | 93° |
| 2026-05-07 18:40 | 50.71257 | 5.42749 | 21068 ft | 419 kts | 93° |
| 2026-05-07 18:40 | 50.71120 | 5.47353 | 21087 ft | 419 kts | 93° |
| 2026-05-07 18:40 | 50.70981 | 5.51950 | 21085 ft | 419 kts | 93° |
| 2026-05-07 18:41 | 50.70841 | 5.56546 | 21083 ft | 419 kts | 93° |
| 2026-05-07 18:41 | 50.70699 | 5.61146 | 21081 ft | 419 kts | 93° |
| 2026-05-07 18:41 | 50.70558 | 5.65700 | 21076 ft | 419 kts | 93° |
| 2026-05-07 18:41 | 50.70413 | 5.70283 | 21077 ft | 419 kts | 93° |
| 2026-05-07 18:42 | 50.70262 | 5.74893 | 21080 ft | 418 kts | 93° |
| 2026-05-07 18:42 | 50.70109 | 5.79440 | 21076 ft | 418 kts | 93° |
| 2026-05-07 18:42 | 50.69955 | 5.84031 | 21074 ft | 418 kts | 94° |
| 2026-05-07 18:42 | 50.69800 | 5.88634 | 21073 ft | 418 kts | 94° |
| 2026-05-07 18:43 | 50.69644 | 5.93223 | 21073 ft | 418 kts | 94° |
| 2026-05-07 18:43 | 50.69485 | 5.97759 | 21074 ft | 418 kts | 94° |
| 2026-05-07 18:43 | 50.69322 | 6.02353 | 21135 ft | 421 kts | 94° |
| 2026-05-07 18:43 | 50.69196 | 6.07002 | 21694 ft | 423 kts | 89° |
| 2026-05-07 18:44 | 50.69460 | 6.11587 | 22230 ft | 426 kts | 79° |
| 2026-05-07 18:44 | 50.70211 | 6.16117 | 22741 ft | 428 kts | 70° |
| 2026-05-07 18:44 | 50.71436 | 6.20416 | 23229 ft | 431 kts | 60° |
| 2026-05-07 18:44 | 50.73065 | 6.24414 | 23679 ft | 434 kts | 52° |
| 2026-05-07 18:45 | 50.75050 | 6.27967 | 24062 ft | 435 kts | 43° |
| 2026-05-07 18:45 | 50.77277 | 6.31226 | 24449 ft | 438 kts | 41° |
| 2026-05-07 18:45 | 50.79523 | 6.34496 | 24820 ft | 440 kts | 41° |
| 2026-05-07 18:45 | 50.81789 | 6.37804 | 25197 ft | 442 kts | 41° |
| 2026-05-07 18:46 | 50.84064 | 6.41134 | 25562 ft | 445 kts | 41° |
| 2026-05-07 18:46 | 50.86317 | 6.44431 | 25914 ft | 447 kts | 41° |
| 2026-05-07 18:46 | 50.88616 | 6.47795 | 26267 ft | 450 kts | 41° |
| 2026-05-07 18:46 | 50.90935 | 6.51190 | 26608 ft | 452 kts | 41° |
| 2026-05-07 18:47 | 50.93218 | 6.54535 | 26935 ft | 454 kts | 41° |
| 2026-05-07 18:47 | 50.95550 | 6.57960 | 27277 ft | 456 kts | 42° |
| 2026-05-07 18:47 | 50.97890 | 6.61412 | 27593 ft | 459 kts | 42° |
| 2026-05-07 18:47 | 51.00206 | 6.64839 | 27928 ft | 460 kts | 42° |
| 2026-05-07 18:48 | 51.02473 | 6.68441 | 28240 ft | 462 kts | 48° |
| 2026-05-07 18:48 | 51.04467 | 6.72466 | 28531 ft | 465 kts | 52° |
| 2026-05-07 18:48 | 51.06423 | 6.76581 | 28809 ft | 467 kts | 52° |
| 2026-05-07 18:48 | 51.08380 | 6.80704 | 29084 ft | 468 kts | 52° |
| 2026-05-07 18:49 | 51.10354 | 6.84866 | 29345 ft | 470 kts | 52° |
| 2026-05-07 18:49 | 51.12326 | 6.89031 | 29586 ft | 472 kts | 52° |
| 2026-05-07 18:49 | 51.14279 | 6.93168 | 29915 ft | 472 kts | 52° |
| 2026-05-07 18:49 | 51.16255 | 6.97363 | 30243 ft | 471 kts | 52° |
| 2026-05-07 18:50 | 51.18224 | 7.01557 | 30539 ft | 470 kts | 52° |
| 2026-05-07 18:50 | 51.20162 | 7.05686 | 30821 ft | 470 kts | 52° |
| 2026-05-07 18:50 | 51.22121 | 7.09861 | 31036 ft | 470 kts | 52° |
| 2026-05-07 18:51 | 51.26029 | 7.18211 | 31078 ft | 468 kts | 52° |
| 2026-05-07 18:51 | 51.29908 | 7.26530 | 31083 ft | 466 kts | 52° |
| 2026-05-07 18:51 | 51.31842 | 7.30694 | 31277 ft | 466 kts | 53° |
| 2026-05-07 18:52 | 51.33779 | 7.34874 | 31596 ft | 465 kts | 53° |
| 2026-05-07 18:52 | 51.35663 | 7.39017 | 31898 ft | 465 kts | 56° |
| 2026-05-07 18:52 | 51.37253 | 7.43512 | 32190 ft | 464 kts | 65° |
| 2026-05-07 18:52 | 51.38444 | 7.48312 | 32495 ft | 464 kts | 70° |
| 2026-05-07 18:53 | 51.39541 | 7.53178 | 32776 ft | 464 kts | 70° |
| 2026-05-07 18:53 | 51.40640 | 7.58037 | 33065 ft | 463 kts | 70° |
| 2026-05-07 18:53 | 51.41742 | 7.62887 | 33361 ft | 462 kts | 70° |
| 2026-05-07 18:53 | 51.42841 | 7.67736 | 33658 ft | 462 kts | 70° |
| 2026-05-07 18:54 | 51.43922 | 7.72511 | 33974 ft | 460 kts | 70° |
| 2026-05-07 18:54 | 51.45012 | 7.77323 | 34268 ft | 459 kts | 70° |
| 2026-05-07 18:54 | 51.46098 | 7.82136 | 34518 ft | 459 kts | 70° |
| 2026-05-07 18:54 | 51.47181 | 7.86956 | 34738 ft | 459 kts | 70° |
| 2026-05-07 18:55 | 51.48263 | 7.91799 | 34955 ft | 460 kts | 70° |
| 2026-05-07 18:55 | 51.49346 | 7.96662 | 35067 ft | 461 kts | 70° |
| 2026-05-07 18:55 | 51.50414 | 8.01461 | 35096 ft | 461 kts | 70° |
| 2026-05-07 18:56 | 51.52573 | 8.11197 | 35101 ft | 461 kts | 70° |
| 2026-05-07 18:56 | 51.53645 | 8.16040 | 34838 ft | 460 kts | 70° |
| 2026-05-07 18:56 | 51.54701 | 8.20828 | 34406 ft | 460 kts | 70° |
| 2026-05-07 18:56 | 51.55762 | 8.25658 | 33947 ft | 457 kts | 70° |
| 2026-05-07 18:57 | 51.56817 | 8.30481 | 33428 ft | 456 kts | 70° |
| 2026-05-07 18:57 | 51.57871 | 8.35298 | 32934 ft | 457 kts | 70° |
| 2026-05-07 18:57 | 51.58925 | 8.40119 | 32455 ft | 457 kts | 70° |
| 2026-05-07 18:57 | 51.59978 | 8.44955 | 31991 ft | 458 kts | 70° |
| 2026-05-07 18:58 | 51.61035 | 8.49820 | 31515 ft | 460 kts | 70° |
| 2026-05-07 18:58 | 51.62076 | 8.54620 | 31164 ft | 460 kts | 70° |
| 2026-05-07 18:58 | 51.63130 | 8.59487 | 31089 ft | 461 kts | 70° |
| 2026-05-07 18:59 | 51.65241 | 8.69256 | 31111 ft | 462 kts | 70° |
| 2026-05-07 18:59 | 51.67336 | 8.79017 | 31107 ft | 461 kts | 70° |
| 2026-05-07 19:00 | 51.69422 | 8.88782 | 31116 ft | 461 kts | 70° |
| 2026-05-07 19:00 | 51.71498 | 8.98555 | 31114 ft | 461 kts | 70° |
| 2026-05-07 19:01 | 51.73569 | 9.08338 | 31118 ft | 461 kts | 71° |
| 2026-05-07 19:01 | 51.75613 | 9.18044 | 30772 ft | 460 kts | 71° |
| 2026-05-07 19:01 | 51.76635 | 9.22928 | 30327 ft | 461 kts | 71° |
| 2026-05-07 19:02 | 51.77665 | 9.27865 | 29828 ft | 462 kts | 71° |
| 2026-05-07 19:02 | 51.78690 | 9.32790 | 29311 ft | 463 kts | 71° |
| 2026-05-07 19:02 | 51.79712 | 9.37707 | 28807 ft | 465 kts | 71° |
| 2026-05-07 19:02 | 51.80743 | 9.42669 | 28312 ft | 466 kts | 71° |
| 2026-05-07 19:03 | 51.81427 | 9.45961 | 27986 ft | 467 kts | 71° |
| 2026-05-07 19:03 | 51.82464 | 9.50961 | 27501 ft | 467 kts | 71° |
| 2026-05-07 19:03 | 51.83339 | 9.56011 | 27023 ft | 465 kts | 77° |
| 2026-05-07 19:03 | 51.84291 | 9.62755 | 26405 ft | 462 kts | 77° |
| 2026-05-07 19:04 | 51.84760 | 9.66104 | 26111 ft | 460 kts | 77° |
| 2026-05-07 19:04 | 51.85704 | 9.72809 | 25499 ft | 457 kts | 77° |
| 2026-05-07 19:04 | 51.86124 | 9.76155 | 25234 ft | 455 kts | 82° |
| 2026-05-07 19:04 | 51.86349 | 9.81270 | 25077 ft | 453 kts | 91° |
| 2026-05-07 19:05 | 51.86076 | 9.86340 | 25120 ft | 453 kts | 99° |
| 2026-05-07 19:05 | 51.85435 | 9.91294 | 25118 ft | 453 kts | 103° |
| 2026-05-07 19:05 | 51.84752 | 9.96283 | 25117 ft | 453 kts | 103° |
| 2026-05-07 19:05 | 51.84064 | 10.01264 | 25061 ft | 453 kts | 103° |
| 2026-05-07 19:06 | 51.83378 | 10.06232 | 24553 ft | 451 kts | 103° |
| 2026-05-07 19:06 | 51.82014 | 10.16079 | 23532 ft | 445 kts | 103° |
| 2026-05-07 19:06 | 51.81349 | 10.20877 | 22957 ft | 442 kts | 103° |
| 2026-05-07 19:07 | 51.80682 | 10.25696 | 22391 ft | 438 kts | 103° |
| 2026-05-07 19:07 | 51.80012 | 10.30489 | 21831 ft | 435 kts | 103° |
| 2026-05-07 19:07 | 51.79341 | 10.35234 | 21279 ft | 432 kts | 103° |
| 2026-05-07 19:07 | 51.78670 | 10.39946 | 20738 ft | 428 kts | 103° |
| 2026-05-07 19:08 | 51.78003 | 10.44617 | 20205 ft | 425 kts | 103° |
| 2026-05-07 19:08 | 51.77342 | 10.49247 | 19684 ft | 422 kts | 103° |
| 2026-05-07 19:08 | 51.76680 | 10.53859 | 19170 ft | 419 kts | 103° |
| 2026-05-07 19:08 | 51.76026 | 10.58426 | 18668 ft | 415 kts | 103° |
| 2026-05-07 19:09 | 51.75384 | 10.62895 | 18223 ft | 411 kts | 103° |
| 2026-05-07 19:09 | 51.74750 | 10.67321 | 18085 ft | 395 kts | 103° |
| 2026-05-07 19:09 | 51.74145 | 10.71555 | 18113 ft | 378 kts | 103° |
| 2026-05-07 19:09 | 51.73557 | 10.75660 | 18121 ft | 373 kts | 103° |
| 2026-05-07 19:10 | 51.72976 | 10.79682 | 18116 ft | 372 kts | 103° |
| 2026-05-07 19:10 | 51.72336 | 10.83727 | 18119 ft | 372 kts | 108° |
| 2026-05-07 19:10 | 51.71442 | 10.87635 | 18120 ft | 372 kts | 111° |
| 2026-05-07 19:10 | 51.70498 | 10.91509 | 18116 ft | 371 kts | 111° |
| 2026-05-07 19:11 | 51.69555 | 10.95396 | 18120 ft | 371 kts | 111° |
| 2026-05-07 19:11 | 51.68613 | 10.99277 | 18117 ft | 372 kts | 111° |
| 2026-05-07 19:11 | 51.67666 | 11.03157 | 18120 ft | 372 kts | 111° |
| 2026-05-07 19:11 | 51.66731 | 11.06993 | 18120 ft | 371 kts | 111° |
| 2026-05-07 19:12 | 51.65787 | 11.10858 | 17906 ft | 370 kts | 112° |
| 2026-05-07 19:12 | 51.64836 | 11.14716 | 17337 ft | 369 kts | 112° |
| 2026-05-07 19:12 | 51.63891 | 11.18554 | 16785 ft | 368 kts | 111° |
| 2026-05-07 19:12 | 51.62948 | 11.22381 | 16242 ft | 367 kts | 111° |
| 2026-05-07 19:13 | 51.61894 | 11.26112 | 15708 ft | 366 kts | 117° |
| 2026-05-07 19:13 | 51.60560 | 11.29598 | 15181 ft | 366 kts | 124° |
| 2026-05-07 19:13 | 51.59089 | 11.32899 | 14670 ft | 364 kts | 125° |
| 2026-05-07 19:13 | 51.57618 | 11.36201 | 14162 ft | 363 kts | 124° |
| 2026-05-07 19:14 | 51.56249 | 11.39599 | 13627 ft | 360 kts | 116° |
| 2026-05-07 19:14 | 51.55498 | 11.43326 | 13066 ft | 353 kts | 95° |
| 2026-05-07 19:14 | 51.55375 | 11.47177 | 12513 ft | 335 kts | 90° |
| 2026-05-07 19:14 | 51.55334 | 11.50839 | 11972 ft | 321 kts | 90° |
| 2026-05-07 19:15 | 51.55301 | 11.54375 | 11442 ft | 309 kts | 90° |
| 2026-05-07 19:15 | 51.55268 | 11.57784 | 10913 ft | 299 kts | 90° |
| 2026-05-07 19:15 | 51.55234 | 11.61076 | 10404 ft | 291 kts | 89° |
| 2026-05-07 19:15 | 51.55201 | 11.64253 | 10151 ft | 285 kts | 89° |
| 2026-05-07 19:16 | 51.55154 | 11.67441 | 10097 ft | 285 kts | 90° |
| 2026-05-07 19:16 | 51.55103 | 11.70637 | 10105 ft | 286 kts | 90° |
| 2026-05-07 19:16 | 51.55052 | 11.73809 | 9643 ft | 281 kts | 90° |
| 2026-05-07 19:16 | 51.55004 | 11.76906 | 9183 ft | 278 kts | 90° |
| 2026-05-07 19:17 | 51.54958 | 11.79946 | 9040 ft | 261 kts | 90° |
| 2026-05-07 19:17 | 51.54913 | 11.82774 | 8732 ft | 248 kts | 90° |
| 2026-05-07 19:17 | 51.54869 | 11.85523 | 8224 ft | 243 kts | 90° |
| 2026-05-07 19:17 | 51.54829 | 11.88227 | 7682 ft | 241 kts | 90° |
| 2026-05-07 19:18 | 51.54793 | 11.90877 | 7146 ft | 238 kts | 90° |
| 2026-05-07 19:18 | 51.54759 | 11.93535 | 6603 ft | 236 kts | 90° |
| 2026-05-07 19:18 | 51.54728 | 11.96165 | 6042 ft | 233 kts | 90° |
| 2026-05-07 19:18 | 51.54700 | 11.98765 | 5527 ft | 233 kts | 90° |
| 2026-05-07 19:19 | 51.54674 | 12.01357 | 5192 ft | 231 kts | 90° |
| 2026-05-07 19:19 | 51.54650 | 12.03909 | 5009 ft | 228 kts | 90° |
| 2026-05-07 19:19 | 51.54432 | 12.06420 | 5001 ft | 230 kts | 112° |
| 2026-05-07 19:19 | 51.53447 | 12.08418 | 5004 ft | 233 kts | 144° |
| 2026-05-07 19:20 | 51.51944 | 12.09260 | 4993 ft | 236 kts | 177° |
| 2026-05-07 19:20 | 51.50351 | 12.08681 | 5000 ft | 239 kts | 210° |
| 2026-05-07 19:20 | 51.49185 | 12.06833 | 4995 ft | 239 kts | 242° |
| 2026-05-07 19:20 | 51.48576 | 12.04346 | 4995 ft | 240 kts | 253° |
| 2026-05-07 19:21 | 51.48099 | 12.01784 | 4944 ft | 239 kts | 255° |
| 2026-05-07 19:21 | 51.47640 | 11.99227 | 4566 ft | 238 kts | 255° |
| 2026-05-07 19:21 | 51.47186 | 11.96675 | 4195 ft | 237 kts | 255° |
| 2026-05-07 19:21 | 51.46699 | 11.94154 | 3846 ft | 236 kts | 245° |
| 2026-05-07 19:22 | 51.45662 | 11.92182 | 3506 ft | 232 kts | 211° |
| 2026-05-07 19:22 | 51.44152 | 11.91440 | 3181 ft | 228 kts | 177° |
| 2026-05-07 19:22 | 51.42702 | 11.92269 | 2998 ft | 224 kts | 137° |
| 2026-05-07 19:22 | 51.41911 | 11.94320 | 2997 ft | 219 kts | 99° |
| 2026-05-07 19:23 | 51.41897 | 11.96660 | 2990 ft | 201 kts | 83° |
| 2026-05-07 19:23 | 51.42014 | 11.98793 | 3015 ft | 183 kts | 83° |
| 2026-05-07 19:23 | 51.42116 | 12.00754 | 2956 ft | 176 kts | 84° |
| 2026-05-07 19:23 | 51.42213 | 12.02691 | 2793 ft | 173 kts | 84° |
| 2026-05-07 19:24 | 51.42307 | 12.04601 | 2580 ft | 171 kts | 84° |
| 2026-05-07 19:24 | 51.42400 | 12.06499 | 2355 ft | 171 kts | 84° |
| 2026-05-07 19:24 | 51.42492 | 12.08386 | 2125 ft | 170 kts | 84° |
| 2026-05-07 19:24 | 51.42581 | 12.10249 | 1890 ft | 161 kts | 83° |
| 2026-05-07 19:25 | 51.42661 | 12.11913 | 1683 ft | 144 kts | 83° |
| 2026-05-07 19:25 | 51.42736 | 12.13473 | 1484 ft | 137 kts | 83° |
| 2026-05-07 19:25 | 51.42809 | 12.14990 | 1295 ft | 135 kts | 83° |
| 2026-05-07 19:25 | 51.42881 | 12.16483 | 1109 ft | 134 kts | 83° |
| 2026-05-07 19:26 | 51.42954 | 12.17962 | 931 ft | 135 kts | 83° |
| 2026-05-07 19:26 | 51.43026 | 12.19470 | 735 ft | 135 kts | 83° |
| 2026-05-07 19:26 | 51.43092 | 12.20964 | 550 ft | 134 kts | 83° |
| 2026-05-07 19:26 | 51.43167 | 12.22429 | 428 ft | 122 kts | 85° |
| 2026-05-07 19:27 | 51.43219 | 12.23486 | 449 ft | 76 kts | 85° |
| 2026-05-07 19:27 | 51.43250 | 12.24222 | 440 ft | 56 kts | 90° |
| 2026-05-07 19:27 | 51.43188 | 12.24680 | 451 ft | 29 kts | 117° |
| 2026-05-07 19:27 | 51.43141 | 12.24838 | 452 ft | 10 kts | 115° |
| 2026-05-07 19:28 | 51.43114 | 12.24932 | 452 ft | 8 kts | 114° |
| 2026-05-07 19:28 | 51.43095 | 12.24999 | 454 ft | 5 kts | 115° |
| 2026-05-07 19:28 | 51.43084 | 12.25035 | 453 ft | 1 kts | 116° |
| 2026-05-07 19:28 | 51.43078 | 12.25053 | 454 ft | 5 kts | 116° |
| 2026-05-07 19:29 | 51.43050 | 12.25106 | 453 ft | 7 kts | 148° |
| 2026-05-07 19:29 | 51.43000 | 12.25110 | 451 ft | 9 kts | 193° |
| 2026-05-07 19:29 | 51.42909 | 12.25075 | 450 ft | 14 kts | 192° |
| 2026-05-07 19:29 | 51.42813 | 12.25041 | 455 ft | 13 kts | 193° |
| 2026-05-07 19:30 | 51.42733 | 12.25008 | 459 ft | 15 kts | 194° |
| 2026-05-07 19:30 | 51.42588 | 12.24953 | 465 ft | 25 kts | 194° |
| 2026-05-07 19:30 | 51.42422 | 12.24890 | 475 ft | 23 kts | 193° |
| 2026-05-07 19:30 | 51.42269 | 12.24832 | 483 ft | 22 kts | 194° |
| 2026-05-07 19:31 | 51.42124 | 12.24775 | 488 ft | 20 kts | 194° |
| 2026-05-07 19:31 | 51.42050 | 12.24740 | 483 ft | 0 kts | 202° |
| 2026-05-07 19:31 | 51.42046 | 12.24726 | 484 ft | 0 kts | 259° |